sensor_id;sensor_type;location;lat;lon;timestamp;temperature;humidity
15160;DHT22;7680;48.800;9.680;2023-02-28T00:01:51;-1.40;99.90
15160;DHT22;7680;48.800;9.680;2023-02-28T00:04:24;-1.30;99.90
15160;DHT22;7680;48.800;9.680;2023-02-28T00:06:57;-1.30;99.90
15160;DHT22;7680;48.800;9.680;2023-02-28T00:09:31;-1.20;99.90
15160;DHT22;7680;48.800;9.680;2023-02-28T00:12:04;-1.30;99.90
15160;DHT22;7680;48.800;9.680;2023-02-28T00:14:41;-1.40;99.90
15160;DHT22;7680;48.800;9.680;2023-02-28T00:17:14;-1.30;99.90
15160;DHT22;7680;48.800;9.680;2023-02-28T00:19:49;-1.30;99.90
15160;DHT22;7680;48.800;9.680;2023-02-28T00:22:23;-1.30;99.90
15160;DHT22;7680;48.800;9.680;2023-02-28T00:24:57;-1.30;99.90
15160;DHT22;7680;48.800;9.680;2023-02-28T00:27:30;-1.20;99.90
15160;DHT22;7680;48.800;9.680;2023-02-28T00:30:05;-1.20;99.90
15160;DHT22;7680;48.800;9.680;2023-02-28T00:32:39;-1.30;99.90
15160;DHT22;7680;48.800;9.680;2023-02-28T00:35:13;-1.20;99.90
15160;DHT22;7680;48.800;9.680;2023-02-28T00:37:47;-1.30;99.90
15160;DHT22;7680;48.800;9.680;2023-02-28T00:40:22;-1.30;99.90
15160;DHT22;7680;48.800;9.680;2023-02-28T00:42:55;-1.30;99.90
15160;DHT22;7680;48.800;9.680;2023-02-28T00:45:28;-1.30;99.90
15160;DHT22;7680;48.800;9.680;2023-02-28T00:48:01;-1.40;99.90
15160;DHT22;7680;48.800;9.680;2023-02-28T00:50:35;-1.40;99.90
15160;DHT22;7680;48.800;9.680;2023-02-28T00:53:08;-1.40;99.90
15160;DHT22;7680;48.800;9.680;2023-02-28T00:55:43;-1.30;99.90
15160;DHT22;7680;48.800;9.680;2023-02-28T00:58:16;-1.30;99.90
15160;DHT22;7680;48.800;9.680;2023-02-28T01:00:50;-1.20;99.90
15160;DHT22;7680;48.800;9.680;2023-02-28T01:03:24;-1.20;99.90
15160;DHT22;7680;48.800;9.680;2023-02-28T01:05:57;-1.30;99.90
15160;DHT22;7680;48.800;9.680;2023-02-28T01:08:31;-1.30;99.90
15160;DHT22;7680;48.800;9.680;2023-02-28T01:11:10;-1.30;99.90
15160;DHT22;7680;48.800;9.680;2023-02-28T01:13:45;-1.40;99.90
15160;DHT22;7680;48.800;9.680;2023-02-28T01:16:18;-1.40;99.90
15160;DHT22;7680;48.800;9.680;2023-02-28T01:18:52;-1.40;99.90
15160;DHT22;7680;48.800;9.680;2023-02-28T01:21:25;-1.40;99.90
15160;DHT22;7680;48.800;9.680;2023-02-28T01:23:59;-1.40;99.90
15160;DHT22;7680;48.800;9.680;2023-02-28T01:26:33;-1.40;99.90
15160;DHT22;7680;48.800;9.680;2023-02-28T01:29:06;-1.40;99.90
15160;DHT22;7680;48.800;9.680;2023-02-28T01:31:39;-1.40;99.90
15160;DHT22;7680;48.800;9.680;2023-02-28T01:34:12;-1.40;99.90
15160;DHT22;7680;48.800;9.680;2023-02-28T01:36:45;-1.50;99.90
15160;DHT22;7680;48.800;9.680;2023-02-28T01:39:18;-1.40;99.90
15160;DHT22;7680;48.800;9.680;2023-02-28T01:41:53;-1.40;99.90
15160;DHT22;7680;48.800;9.680;2023-02-28T01:44:58;-1.40;99.90
15160;DHT22;7680;48.800;9.680;2023-02-28T01:47:40;-1.40;99.90
15160;DHT22;7680;48.800;9.680;2023-02-28T01:50:16;-1.50;99.90
15160;DHT22;7680;48.800;9.680;2023-02-28T01:52:53;-1.40;99.90
15160;DHT22;7680;48.800;9.680;2023-02-28T01:55:28;-1.40;99.90
15160;DHT22;7680;48.800;9.680;2023-02-28T01:58:05;-1.40;99.90
15160;DHT22;7680;48.800;9.680;2023-02-28T02:00:40;-1.40;99.90
15160;DHT22;7680;48.800;9.680;2023-02-28T02:03:16;-1.50;99.90
15160;DHT22;7680;48.800;9.680;2023-02-28T02:05:51;-1.50;99.90
15160;DHT22;7680;48.800;9.680;2023-02-28T02:08:26;-1.50;99.90
15160;DHT22;7680;48.800;9.680;2023-02-28T02:11:01;-1.50;99.90
15160;DHT22;7680;48.800;9.680;2023-02-28T02:13:58;-1.40;99.90
15160;DHT22;7680;48.800;9.680;2023-02-28T02:16:50;-1.50;99.90
15160;DHT22;7680;48.800;9.680;2023-02-28T02:20:07;-1.60;99.90
15160;DHT22;7680;48.800;9.680;2023-02-28T02:23:20;-1.60;99.90
15160;DHT22;7680;48.800;9.680;2023-02-28T02:26:25;-1.60;99.90
15160;DHT22;7680;48.800;9.680;2023-02-28T02:29:36;-1.60;99.90
15160;DHT22;7680;48.800;9.680;2023-02-28T02:33:06;-1.60;99.90
15160;DHT22;7680;48.800;9.680;2023-02-28T02:35:53;-1.60;99.90
15160;DHT22;7680;48.800;9.680;2023-02-28T02:38:32;-1.70;99.90
15160;DHT22;7680;48.800;9.680;2023-02-28T02:41:12;-1.70;99.90
15160;DHT22;7680;48.800;9.680;2023-02-28T02:43:49;-1.50;99.90
15160;DHT22;7680;48.800;9.680;2023-02-28T02:46:28;-1.50;99.90
15160;DHT22;7680;48.800;9.680;2023-02-28T02:49:05;-1.40;99.90
15160;DHT22;7680;48.800;9.680;2023-02-28T02:51:42;-1.50;99.90
15160;DHT22;7680;48.800;9.680;2023-02-28T02:54:19;-1.70;99.90
15160;DHT22;7680;48.800;9.680;2023-02-28T02:56:54;-1.60;99.90
15160;DHT22;7680;48.800;9.680;2023-02-28T02:59:28;-1.60;99.90
15160;DHT22;7680;48.800;9.680;2023-02-28T03:02:06;-1.60;99.90
15160;DHT22;7680;48.800;9.680;2023-02-28T03:04:43;-1.60;99.90
15160;DHT22;7680;48.800;9.680;2023-02-28T03:07:20;-1.60;99.90
15160;DHT22;7680;48.800;9.680;2023-02-28T03:09:55;-1.60;99.90
15160;DHT22;7680;48.800;9.680;2023-02-28T03:12:34;-1.60;99.90
15160;DHT22;7680;48.800;9.680;2023-02-28T03:15:18;-1.50;99.90
15160;DHT22;7680;48.800;9.680;2023-02-28T03:18:01;-1.50;99.90
15160;DHT22;7680;48.800;9.680;2023-02-28T03:20:41;-1.50;99.90
15160;DHT22;7680;48.800;9.680;2023-02-28T03:23:23;-1.40;99.90
15160;DHT22;7680;48.800;9.680;2023-02-28T03:26:04;-1.40;99.90
15160;DHT22;7680;48.800;9.680;2023-02-28T03:28:45;-1.40;99.90
15160;DHT22;7680;48.800;9.680;2023-02-28T03:31:29;-1.50;99.90
15160;DHT22;7680;48.800;9.680;2023-02-28T03:34:08;-1.40;99.90
15160;DHT22;7680;48.800;9.680;2023-02-28T03:36:46;-1.20;99.90
15160;DHT22;7680;48.800;9.680;2023-02-28T03:39:26;-1.30;99.90
15160;DHT22;7680;48.800;9.680;2023-02-28T03:42:05;-1.30;99.90
15160;DHT22;7680;48.800;9.680;2023-02-28T03:44:41;-1.20;99.90
15160;DHT22;7680;48.800;9.680;2023-02-28T03:47:19;-1.30;99.90
15160;DHT22;7680;48.800;9.680;2023-02-28T03:49:57;-1.30;99.90
15160;DHT22;7680;48.800;9.680;2023-02-28T03:52:36;-1.20;99.90
15160;DHT22;7680;48.800;9.680;2023-02-28T03:55:14;-1.20;99.90
15160;DHT22;7680;48.800;9.680;2023-02-28T03:57:56;-1.20;99.90
15160;DHT22;7680;48.800;9.680;2023-02-28T04:00:35;-1.10;99.90
15160;DHT22;7680;48.800;9.680;2023-02-28T04:03:09;-1.10;99.90
15160;DHT22;7680;48.800;9.680;2023-02-28T04:05:49;-1.20;99.90
15160;DHT22;7680;48.800;9.680;2023-02-28T04:08:23;-1.20;99.90
15160;DHT22;7680;48.800;9.680;2023-02-28T04:11:01;-1.10;99.90
15160;DHT22;7680;48.800;9.680;2023-02-28T04:13:37;-1.00;99.90
15160;DHT22;7680;48.800;9.680;2023-02-28T04:16:10;-1.10;99.90
15160;DHT22;7680;48.800;9.680;2023-02-28T04:18:55;-1.00;99.90
15160;DHT22;7680;48.800;9.680;2023-02-28T04:21:35;-1.00;99.90
15160;DHT22;7680;48.800;9.680;2023-02-28T04:24:11;-1.00;99.90
15160;DHT22;7680;48.800;9.680;2023-02-28T04:26:49;-1.00;99.90
15160;DHT22;7680;48.800;9.680;2023-02-28T04:29:25;-1.10;99.90
15160;DHT22;7680;48.800;9.680;2023-02-28T04:32:00;-1.00;99.90
15160;DHT22;7680;48.800;9.680;2023-02-28T04:34:34;-1.00;99.90
15160;DHT22;7680;48.800;9.680;2023-02-28T04:37:07;-1.10;99.90
15160;DHT22;7680;48.800;9.680;2023-02-28T04:39:44;-1.10;99.90
15160;DHT22;7680;48.800;9.680;2023-02-28T04:42:19;-1.20;99.90
15160;DHT22;7680;48.800;9.680;2023-02-28T04:44:52;-1.20;99.90
15160;DHT22;7680;48.800;9.680;2023-02-28T04:47:25;-1.20;99.90
15160;DHT22;7680;48.800;9.680;2023-02-28T04:49:58;-1.00;99.90
15160;DHT22;7680;48.800;9.680;2023-02-28T04:52:31;-1.00;99.90
15160;DHT22;7680;48.800;9.680;2023-02-28T04:55:05;-1.00;99.90
15160;DHT22;7680;48.800;9.680;2023-02-28T04:57:39;-0.90;99.90
15160;DHT22;7680;48.800;9.680;2023-02-28T05:00:14;-0.80;99.90
15160;DHT22;7680;48.800;9.680;2023-02-28T05:02:48;-1.00;99.90
15160;DHT22;7680;48.800;9.680;2023-02-28T05:05:21;-1.10;99.90
15160;DHT22;7680;48.800;9.680;2023-02-28T05:07:54;-0.80;99.90
15160;DHT22;7680;48.800;9.680;2023-02-28T05:10:27;-0.90;99.90
15160;DHT22;7680;48.800;9.680;2023-02-28T05:13:02;-0.80;99.90
15160;DHT22;7680;48.800;9.680;2023-02-28T05:15:36;-0.80;99.90
15160;DHT22;7680;48.800;9.680;2023-02-28T05:18:09;-0.90;99.90
15160;DHT22;7680;48.800;9.680;2023-02-28T05:20:42;-0.90;99.90
15160;DHT22;7680;48.800;9.680;2023-02-28T05:23:16;-0.80;99.90
15160;DHT22;7680;48.800;9.680;2023-02-28T05:25:50;-0.90;99.90
15160;DHT22;7680;48.800;9.680;2023-02-28T05:28:25;-1.00;99.90
15160;DHT22;7680;48.800;9.680;2023-02-28T05:30:58;-1.00;99.90
15160;DHT22;7680;48.800;9.680;2023-02-28T05:33:31;-1.00;99.90
15160;DHT22;7680;48.800;9.680;2023-02-28T05:36:05;-0.90;99.90
15160;DHT22;7680;48.800;9.680;2023-02-28T05:38:39;-0.80;99.90
15160;DHT22;7680;48.800;9.680;2023-02-28T05:41:12;-1.00;99.90
15160;DHT22;7680;48.800;9.680;2023-02-28T05:43:47;-0.90;99.90
15160;DHT22;7680;48.800;9.680;2023-02-28T05:46:20;-0.80;99.90
15160;DHT22;7680;48.800;9.680;2023-02-28T05:48:53;-0.80;99.90
15160;DHT22;7680;48.800;9.680;2023-02-28T05:51:27;-0.90;99.90
15160;DHT22;7680;48.800;9.680;2023-02-28T05:54:01;-0.60;99.90
15160;DHT22;7680;48.800;9.680;2023-02-28T05:56:34;-0.80;99.90
15160;DHT22;7680;48.800;9.680;2023-02-28T05:59:10;-0.80;99.90
15160;DHT22;7680;48.800;9.680;2023-02-28T06:01:45;-0.90;99.90
15160;DHT22;7680;48.800;9.680;2023-02-28T06:04:21;-1.00;99.90
15160;DHT22;7680;48.800;9.680;2023-02-28T06:07:02;-1.00;99.90
15160;DHT22;7680;48.800;9.680;2023-02-28T06:09:36;-0.70;99.90
15160;DHT22;7680;48.800;9.680;2023-02-28T06:12:10;-0.90;99.90
15160;DHT22;7680;48.800;9.680;2023-02-28T06:14:45;-1.00;99.90
15160;DHT22;7680;48.800;9.680;2023-02-28T06:17:18;-1.10;99.90
15160;DHT22;7680;48.800;9.680;2023-02-28T06:19:51;-0.90;99.90
15160;DHT22;7680;48.800;9.680;2023-02-28T06:22:24;-1.00;99.90
15160;DHT22;7680;48.800;9.680;2023-02-28T06:24:57;-1.00;99.90
15160;DHT22;7680;48.800;9.680;2023-02-28T06:27:31;-1.00;99.90
15160;DHT22;7680;48.800;9.680;2023-02-28T06:30:07;-0.60;99.90
15160;DHT22;7680;48.800;9.680;2023-02-28T06:32:42;-0.80;99.90
15160;DHT22;7680;48.800;9.680;2023-02-28T06:35:15;-0.80;99.90
15160;DHT22;7680;48.800;9.680;2023-02-28T06:37:49;-0.90;99.90
15160;DHT22;7680;48.800;9.680;2023-02-28T06:40:22;-0.90;99.90
15160;DHT22;7680;48.800;9.680;2023-02-28T06:42:55;-1.10;99.90
15160;DHT22;7680;48.800;9.680;2023-02-28T06:45:30;-1.10;99.90
15160;DHT22;7680;48.800;9.680;2023-02-28T06:48:03;-1.10;99.90
15160;DHT22;7680;48.800;9.680;2023-02-28T06:50:36;-1.10;99.90
15160;DHT22;7680;48.800;9.680;2023-02-28T06:53:10;-0.90;99.90
15160;DHT22;7680;48.800;9.680;2023-02-28T06:55:43;-0.90;99.90
15160;DHT22;7680;48.800;9.680;2023-02-28T06:58:16;-0.80;99.90
15160;DHT22;7680;48.800;9.680;2023-02-28T07:00:52;-0.80;99.90
15160;DHT22;7680;48.800;9.680;2023-02-28T07:03:25;-0.90;99.90
15160;DHT22;7680;48.800;9.680;2023-02-28T07:05:59;-0.90;99.90
15160;DHT22;7680;48.800;9.680;2023-02-28T07:08:32;-0.80;99.90
15160;DHT22;7680;48.800;9.680;2023-02-28T07:11:06;-0.60;99.90
15160;DHT22;7680;48.800;9.680;2023-02-28T07:13:39;-0.80;99.90
15160;DHT22;7680;48.800;9.680;2023-02-28T07:16:13;-0.80;99.90
15160;DHT22;7680;48.800;9.680;2023-02-28T07:18:46;-0.70;99.90
15160;DHT22;7680;48.800;9.680;2023-02-28T07:21:19;-0.80;99.90
15160;DHT22;7680;48.800;9.680;2023-02-28T07:23:52;-0.90;99.90
15160;DHT22;7680;48.800;9.680;2023-02-28T07:26:25;-0.70;99.90
15160;DHT22;7680;48.800;9.680;2023-02-28T07:28:58;-0.50;99.90
15160;DHT22;7680;48.800;9.680;2023-02-28T07:31:33;-0.50;99.90
15160;DHT22;7680;48.800;9.680;2023-02-28T07:34:06;-0.70;99.90
15160;DHT22;7680;48.800;9.680;2023-02-28T07:36:39;-0.50;99.90
15160;DHT22;7680;48.800;9.680;2023-02-28T07:39:12;-0.70;99.90
15160;DHT22;7680;48.800;9.680;2023-02-28T07:41:45;-0.70;99.90
15160;DHT22;7680;48.800;9.680;2023-02-28T07:44:18;-0.50;99.90
15160;DHT22;7680;48.800;9.680;2023-02-28T07:46:54;-0.60;99.90
15160;DHT22;7680;48.800;9.680;2023-02-28T07:49:27;-0.50;99.90
15160;DHT22;7680;48.800;9.680;2023-02-28T07:52:00;-0.70;99.90
15160;DHT22;7680;48.800;9.680;2023-02-28T07:54:33;-0.60;99.90
15160;DHT22;7680;48.800;9.680;2023-02-28T07:57:06;-0.60;99.90
15160;DHT22;7680;48.800;9.680;2023-02-28T07:59:39;-0.60;99.90
15160;DHT22;7680;48.800;9.680;2023-02-28T08:02:14;-0.60;99.90
15160;DHT22;7680;48.800;9.680;2023-02-28T08:04:48;-0.60;99.90
15160;DHT22;7680;48.800;9.680;2023-02-28T08:07:21;-0.60;99.90
15160;DHT22;7680;48.800;9.680;2023-02-28T08:09:55;-0.50;99.90
15160;DHT22;7680;48.800;9.680;2023-02-28T08:12:28;-0.60;99.90
15160;DHT22;7680;48.800;9.680;2023-02-28T08:15:01;-0.50;99.90
15160;DHT22;7680;48.800;9.680;2023-02-28T08:17:35;-0.50;99.90
15160;DHT22;7680;48.800;9.680;2023-02-28T08:20:09;-0.40;99.90
15160;DHT22;7680;48.800;9.680;2023-02-28T08:22:43;-0.30;99.90
15160;DHT22;7680;48.800;9.680;2023-02-28T08:25:17;0.00;99.90
15160;DHT22;7680;48.800;9.680;2023-02-28T08:27:50;-0.20;99.90
15160;DHT22;7680;48.800;9.680;2023-02-28T08:30:24;-0.20;99.90
15160;DHT22;7680;48.800;9.680;2023-02-28T08:32:58;-0.30;99.90
15160;DHT22;7680;48.800;9.680;2023-02-28T08:35:35;-0.10;99.90
15160;DHT22;7680;48.800;9.680;2023-02-28T08:38:09;0.00;99.90
15160;DHT22;7680;48.800;9.680;2023-02-28T08:40:41;0.10;99.90
15160;DHT22;7680;48.800;9.680;2023-02-28T08:43:14;0.10;99.90
15160;DHT22;7680;48.800;9.680;2023-02-28T08:45:51;0.30;99.90
15160;DHT22;7680;48.800;9.680;2023-02-28T08:48:27;0.30;99.90
15160;DHT22;7680;48.800;9.680;2023-02-28T08:51:04;0.30;99.90
15160;DHT22;7680;48.800;9.680;2023-02-28T08:53:40;0.30;99.90
15160;DHT22;7680;48.800;9.680;2023-02-28T08:56:14;0.30;99.90
15160;DHT22;7680;48.800;9.680;2023-02-28T08:58:49;0.60;99.90
15160;DHT22;7680;48.800;9.680;2023-02-28T09:01:24;0.70;99.90
15160;DHT22;7680;48.800;9.680;2023-02-28T09:04:01;0.80;99.90
15160;DHT22;7680;48.800;9.680;2023-02-28T09:06:35;0.70;99.90
15160;DHT22;7680;48.800;9.680;2023-02-28T09:09:08;0.80;99.90
15160;DHT22;7680;48.800;9.680;2023-02-28T09:11:41;0.90;99.90
15160;DHT22;7680;48.800;9.680;2023-02-28T09:14:14;0.80;99.90
15160;DHT22;7680;48.800;9.680;2023-02-28T09:16:49;0.80;99.90
15160;DHT22;7680;48.800;9.680;2023-02-28T09:19:23;0.70;99.90
15160;DHT22;7680;48.800;9.680;2023-02-28T09:21:56;0.90;99.90
15160;DHT22;7680;48.800;9.680;2023-02-28T09:24:29;1.00;99.90
15160;DHT22;7680;48.800;9.680;2023-02-28T09:27:03;1.00;99.90
15160;DHT22;7680;48.800;9.680;2023-02-28T09:29:38;1.10;99.90
15160;DHT22;7680;48.800;9.680;2023-02-28T09:32:11;1.20;99.90
15160;DHT22;7680;48.800;9.680;2023-02-28T09:34:45;1.10;99.90
15160;DHT22;7680;48.800;9.680;2023-02-28T09:37:18;1.20;99.90
15160;DHT22;7680;48.800;9.680;2023-02-28T09:39:51;1.10;99.90
15160;DHT22;7680;48.800;9.680;2023-02-28T09:42:29;1.30;99.90
15160;DHT22;7680;48.800;9.680;2023-02-28T09:45:10;1.10;99.90
15160;DHT22;7680;48.800;9.680;2023-02-28T09:47:50;1.20;99.90
15160;DHT22;7680;48.800;9.680;2023-02-28T09:50:32;1.20;99.90
15160;DHT22;7680;48.800;9.680;2023-02-28T09:53:16;1.30;99.90
15160;DHT22;7680;48.800;9.680;2023-02-28T09:55:55;1.50;99.90
15160;DHT22;7680;48.800;9.680;2023-02-28T09:58:36;1.50;99.90
15160;DHT22;7680;48.800;9.680;2023-02-28T10:01:21;1.60;99.80
15160;DHT22;7680;48.800;9.680;2023-02-28T10:04:05;1.80;99.50
15160;DHT22;7680;48.800;9.680;2023-02-28T10:06:46;1.60;99.80
15160;DHT22;7680;48.800;9.680;2023-02-28T10:09:24;1.80;99.40
15160;DHT22;7680;48.800;9.680;2023-02-28T10:12:03;1.80;99.40
15160;DHT22;7680;48.800;9.680;2023-02-28T10:14:46;1.90;99.20
15160;DHT22;7680;48.800;9.680;2023-02-28T10:17:25;2.00;99.20
15160;DHT22;7680;48.800;9.680;2023-02-28T10:20:02;2.40;98.00
15160;DHT22;7680;48.800;9.680;2023-02-28T10:22:50;2.50;98.10
15160;DHT22;7680;48.800;9.680;2023-02-28T10:25:28;2.60;97.80
15160;DHT22;7680;48.800;9.680;2023-02-28T10:28:09;2.50;97.30
15160;DHT22;7680;48.800;9.680;2023-02-28T10:30:46;2.60;97.50
15160;DHT22;7680;48.800;9.680;2023-02-28T10:33:23;2.90;96.60
15160;DHT22;7680;48.800;9.680;2023-02-28T10:35:58;2.60;96.90
15160;DHT22;7680;48.800;9.680;2023-02-28T10:38:35;2.70;96.90
15160;DHT22;7680;48.800;9.680;2023-02-28T10:41:11;2.70;97.20
15160;DHT22;7680;48.800;9.680;2023-02-28T10:43:46;2.80;96.80
15160;DHT22;7680;48.800;9.680;2023-02-28T10:46:20;2.70;96.60
15160;DHT22;7680;48.800;9.680;2023-02-28T10:49:02;3.00;96.30
15160;DHT22;7680;48.800;9.680;2023-02-28T10:51:38;2.70;96.40
15160;DHT22;7680;48.800;9.680;2023-02-28T10:54:19;2.90;96.70
15160;DHT22;7680;48.800;9.680;2023-02-28T10:57:15;3.10;96.20
15160;DHT22;7680;48.800;9.680;2023-02-28T10:59:50;3.00;96.30
15160;DHT22;7680;48.800;9.680;2023-02-28T11:02:33;3.10;96.80
15160;DHT22;7680;48.800;9.680;2023-02-28T11:05:24;3.00;96.00
15160;DHT22;7680;48.800;9.680;2023-02-28T11:08:05;3.10;96.30
15160;DHT22;7680;48.800;9.680;2023-02-28T11:10:44;3.30;96.40
15160;DHT22;7680;48.800;9.680;2023-02-28T11:13:20;3.50;95.50
15160;DHT22;7680;48.800;9.680;2023-02-28T11:15:59;3.60;95.30
15160;DHT22;7680;48.800;9.680;2023-02-28T11:18:39;3.60;95.10
15160;DHT22;7680;48.800;9.680;2023-02-28T11:21:24;3.70;95.20
15160;DHT22;7680;48.800;9.680;2023-02-28T11:24:03;3.90;95.30
15160;DHT22;7680;48.800;9.680;2023-02-28T11:26:41;4.00;94.70
15160;DHT22;7680;48.800;9.680;2023-02-28T11:29:19;4.00;94.70
15160;DHT22;7680;48.800;9.680;2023-02-28T11:32:09;3.80;94.80
15160;DHT22;7680;48.800;9.680;2023-02-28T11:34:58;3.80;95.60
15160;DHT22;7680;48.800;9.680;2023-02-28T11:37:33;4.10;95.50
15160;DHT22;7680;48.800;9.680;2023-02-28T11:40:13;4.20;95.10
15160;DHT22;7680;48.800;9.680;2023-02-28T11:42:57;4.20;94.60
15160;DHT22;7680;48.800;9.680;2023-02-28T11:46:00;4.10;94.70
15160;DHT22;7680;48.800;9.680;2023-02-28T11:48:46;3.70;94.70
15160;DHT22;7680;48.800;9.680;2023-02-28T11:51:28;3.80;94.80
15160;DHT22;7680;48.800;9.680;2023-02-28T11:54:20;3.80;94.50
15160;DHT22;7680;48.800;9.680;2023-02-28T11:57:00;3.80;94.60
15160;DHT22;7680;48.800;9.680;2023-02-28T11:59:51;3.60;94.80
15160;DHT22;7680;48.800;9.680;2023-02-28T12:02:36;3.70;95.00
15160;DHT22;7680;48.800;9.680;2023-02-28T12:05:29;3.80;95.00
15160;DHT22;7680;48.800;9.680;2023-02-28T12:08:15;4.00;94.60
15160;DHT22;7680;48.800;9.680;2023-02-28T12:11:06;3.90;94.50
15160;DHT22;7680;48.800;9.680;2023-02-28T12:13:50;3.90;94.50
15160;DHT22;7680;48.800;9.680;2023-02-28T12:16:55;4.00;94.80
15160;DHT22;7680;48.800;9.680;2023-02-28T12:19:42;4.20;94.40
15160;DHT22;7680;48.800;9.680;2023-02-28T12:22:39;4.40;94.70
15160;DHT22;7680;48.800;9.680;2023-02-28T12:25:32;4.30;93.90
15160;DHT22;7680;48.800;9.680;2023-02-28T12:28:17;4.40;94.10
15160;DHT22;7680;48.800;9.680;2023-02-28T12:30:57;4.40;93.80
15160;DHT22;7680;48.800;9.680;2023-02-28T12:33:36;4.40;94.20
15160;DHT22;7680;48.800;9.680;2023-02-28T12:36:16;4.50;93.80
15160;DHT22;7680;48.800;9.680;2023-02-28T12:38:56;4.50;93.70
15160;DHT22;7680;48.800;9.680;2023-02-28T12:41:37;4.50;94.00
15160;DHT22;7680;48.800;9.680;2023-02-28T12:44:15;4.60;93.60
15160;DHT22;7680;48.800;9.680;2023-02-28T12:46:52;4.60;93.60
15160;DHT22;7680;48.800;9.680;2023-02-28T12:49:31;4.60;93.70
15160;DHT22;7680;48.800;9.680;2023-02-28T12:52:06;4.60;93.50
15160;DHT22;7680;48.800;9.680;2023-02-28T12:54:48;4.50;93.30
15160;DHT22;7680;48.800;9.680;2023-02-28T12:57:29;4.40;93.60
15160;DHT22;7680;48.800;9.680;2023-02-28T13:00:12;4.50;93.40
15160;DHT22;7680;48.800;9.680;2023-02-28T13:03:18;4.50;93.30
15160;DHT22;7680;48.800;9.680;2023-02-28T13:06:16;4.30;93.60
15160;DHT22;7680;48.800;9.680;2023-02-28T13:09:03;4.60;93.30
15160;DHT22;7680;48.800;9.680;2023-02-28T13:11:40;4.50;93.20
15160;DHT22;7680;48.800;9.680;2023-02-28T13:14:24;4.40;93.40
15160;DHT22;7680;48.800;9.680;2023-02-28T13:17:02;4.40;93.50
15160;DHT22;7680;48.800;9.680;2023-02-28T13:19:44;4.40;93.40
15160;DHT22;7680;48.800;9.680;2023-02-28T13:22:37;4.40;93.50
15160;DHT22;7680;48.800;9.680;2023-02-28T13:35:38;4.80;92.90
15160;DHT22;7680;48.800;9.680;2023-02-28T13:38:33;4.70;93.50
15160;DHT22;7680;48.800;9.680;2023-02-28T13:41:42;4.70;93.10
15160;DHT22;7680;48.800;9.680;2023-02-28T13:44:20;4.70;93.10
15160;DHT22;7680;48.800;9.680;2023-02-28T13:47:19;4.80;93.40
15160;DHT22;7680;48.800;9.680;2023-02-28T13:50:15;5.10;92.80
15160;DHT22;7680;48.800;9.680;2023-02-28T13:53:24;5.00;92.80
15160;DHT22;7680;48.800;9.680;2023-02-28T13:56:22;4.90;93.20
15160;DHT22;7680;48.800;9.680;2023-02-28T13:59:06;4.90;93.60
15160;DHT22;7680;48.800;9.680;2023-02-28T14:01:58;4.90;92.90
15160;DHT22;7680;48.800;9.680;2023-02-28T14:04:48;4.90;93.20
15160;DHT22;7680;48.800;9.680;2023-02-28T14:07:29;5.00;93.00
15160;DHT22;7680;48.800;9.680;2023-02-28T14:10:22;4.80;92.90
15160;DHT22;7680;48.800;9.680;2023-02-28T14:13:03;4.90;93.00
15160;DHT22;7680;48.800;9.680;2023-02-28T14:15:54;5.00;92.90
15160;DHT22;7680;48.800;9.680;2023-02-28T14:18:31;5.10;92.60
15160;DHT22;7680;48.800;9.680;2023-02-28T14:21:21;4.90;92.60
15160;DHT22;7680;48.800;9.680;2023-02-28T14:24:21;4.90;93.10
15160;DHT22;7680;48.800;9.680;2023-02-28T14:27:28;4.90;92.70
15160;DHT22;7680;48.800;9.680;2023-02-28T14:30:36;5.20;92.70
15160;DHT22;7680;48.800;9.680;2023-02-28T14:33:24;5.10;92.90
15160;DHT22;7680;48.800;9.680;2023-02-28T14:36:14;5.10;92.90
15160;DHT22;7680;48.800;9.680;2023-02-28T14:38:51;5.10;92.80
15160;DHT22;7680;48.800;9.680;2023-02-28T14:41:30;5.00;92.60
15160;DHT22;7680;48.800;9.680;2023-02-28T14:44:16;5.00;92.90
15160;DHT22;7680;48.800;9.680;2023-02-28T14:46:53;5.10;93.30
15160;DHT22;7680;48.800;9.680;2023-02-28T14:49:29;5.20;92.80
15160;DHT22;7680;48.800;9.680;2023-02-28T14:52:07;5.20;92.40
15160;DHT22;7680;48.800;9.680;2023-02-28T14:54:46;5.30;92.60
15160;DHT22;7680;48.800;9.680;2023-02-28T14:57:27;5.20;92.50
15160;DHT22;7680;48.800;9.680;2023-02-28T15:00:04;5.00;93.00
15160;DHT22;7680;48.800;9.680;2023-02-28T15:02:45;5.10;93.00
15160;DHT22;7680;48.800;9.680;2023-02-28T15:05:27;5.20;92.60
15160;DHT22;7680;48.800;9.680;2023-02-28T15:08:05;5.10;92.90
15160;DHT22;7680;48.800;9.680;2023-02-28T15:10:41;5.00;92.90
15160;DHT22;7680;48.800;9.680;2023-02-28T15:13:15;4.90;93.00
15160;DHT22;7680;48.800;9.680;2023-02-28T15:15:54;4.80;93.40
15160;DHT22;7680;48.800;9.680;2023-02-28T15:18:42;4.90;93.30
15160;DHT22;7680;48.800;9.680;2023-02-28T15:21:19;4.80;93.20
15160;DHT22;7680;48.800;9.680;2023-02-28T15:23:56;4.70;93.50
15160;DHT22;7680;48.800;9.680;2023-02-28T15:26:33;4.80;93.60
15160;DHT22;7680;48.800;9.680;2023-02-28T15:29:13;4.70;93.80
15160;DHT22;7680;48.800;9.680;2023-02-28T15:31:50;4.60;93.60
15160;DHT22;7680;48.800;9.680;2023-02-28T15:34:34;4.60;93.80
15160;DHT22;7680;48.800;9.680;2023-02-28T15:37:39;4.70;93.80
15160;DHT22;7680;48.800;9.680;2023-02-28T15:40:16;4.60;93.70
15160;DHT22;7680;48.800;9.680;2023-02-28T15:43:07;4.70;93.70
15160;DHT22;7680;48.800;9.680;2023-02-28T15:45:47;4.80;93.40
15160;DHT22;7680;48.800;9.680;2023-02-28T15:48:24;5.00;93.30
15160;DHT22;7680;48.800;9.680;2023-02-28T15:51:05;4.90;93.60
15160;DHT22;7680;48.800;9.680;2023-02-28T15:53:45;4.70;93.60
15160;DHT22;7680;48.800;9.680;2023-02-28T15:56:24;4.60;93.70
15160;DHT22;7680;48.800;9.680;2023-02-28T15:59:00;4.50;93.90
15160;DHT22;7680;48.800;9.680;2023-02-28T16:01:37;4.60;93.80
15160;DHT22;7680;48.800;9.680;2023-02-28T16:04:15;4.50;93.70
15160;DHT22;7680;48.800;9.680;2023-02-28T16:07:01;4.30;94.00
15160;DHT22;7680;48.800;9.680;2023-02-28T16:09:35;4.20;94.40
15160;DHT22;7680;48.800;9.680;2023-02-28T16:12:09;4.10;94.30
15160;DHT22;7680;48.800;9.680;2023-02-28T16:14:45;4.10;94.50
15160;DHT22;7680;48.800;9.680;2023-02-28T16:17:20;4.10;94.60
15160;DHT22;7680;48.800;9.680;2023-02-28T16:19:56;4.00;94.60
15160;DHT22;7680;48.800;9.680;2023-02-28T16:22:29;4.00;94.80
15160;DHT22;7680;48.800;9.680;2023-02-28T16:25:02;4.00;95.00
15160;DHT22;7680;48.800;9.680;2023-02-28T16:27:39;3.90;95.10
15160;DHT22;7680;48.800;9.680;2023-02-28T16:30:18;3.90;95.20
15160;DHT22;7680;48.800;9.680;2023-02-28T16:32:54;3.80;95.10
15160;DHT22;7680;48.800;9.680;2023-02-28T16:35:29;3.80;95.10
15160;DHT22;7680;48.800;9.680;2023-02-28T16:38:02;3.70;95.30
15160;DHT22;7680;48.800;9.680;2023-02-28T16:40:36;3.70;95.40
15160;DHT22;7680;48.800;9.680;2023-02-28T16:43:15;3.60;95.40
15160;DHT22;7680;48.800;9.680;2023-02-28T16:45:54;3.60;95.40
15160;DHT22;7680;48.800;9.680;2023-02-28T16:48:32;3.60;95.30
15160;DHT22;7680;48.800;9.680;2023-02-28T16:51:07;3.50;95.40
15160;DHT22;7680;48.800;9.680;2023-02-28T16:53:44;3.50;95.70
15160;DHT22;7680;48.800;9.680;2023-02-28T16:56:19;3.40;95.80
15160;DHT22;7680;48.800;9.680;2023-02-28T16:58:57;3.40;95.80
15160;DHT22;7680;48.800;9.680;2023-02-28T17:01:32;3.30;95.90
15160;DHT22;7680;48.800;9.680;2023-02-28T17:04:06;3.30;95.90
15160;DHT22;7680;48.800;9.680;2023-02-28T17:06:42;3.20;96.10
15160;DHT22;7680;48.800;9.680;2023-02-28T17:09:17;3.20;96.10
15160;DHT22;7680;48.800;9.680;2023-02-28T17:11:52;3.10;96.30
15160;DHT22;7680;48.800;9.680;2023-02-28T17:14:25;3.10;96.40
15160;DHT22;7680;48.800;9.680;2023-02-28T17:16:58;3.00;96.40
15160;DHT22;7680;48.800;9.680;2023-02-28T17:19:31;3.00;96.50